sensor_id;sensor_type;location;lat;lon;timestamp;P1;durP1;ratioP1;P2;durP2;ratioP2
30505;SDS011;17292;51.600;4.994;2023-06-14T00:00:58;17.30;;;12.90;;
30505;SDS011;17292;51.600;4.994;2023-06-14T00:03:25;17.65;;;13.18;;
30505;SDS011;17292;51.600;4.994;2023-06-14T00:05:51;19.35;;;13.57;;
30505;SDS011;17292;51.600;4.994;2023-06-14T00:08:17;15.07;;;12.48;;
30505;SDS011;17292;51.600;4.994;2023-06-14T00:10:44;16.55;;;12.73;;
30505;SDS011;17292;51.600;4.994;2023-06-14T00:13:10;18.35;;;12.77;;
30505;SDS011;17292;51.600;4.994;2023-06-14T00:15:37;17.75;;;12.68;;
30505;SDS011;17292;51.600;4.994;2023-06-14T00:18:03;17.80;;;12.50;;
30505;SDS011;17292;51.600;4.994;2023-06-14T00:20:30;16.65;;;12.80;;
30505;SDS011;17292;51.600;4.994;2023-06-14T00:22:58;14.32;;;12.63;;
30505;SDS011;17292;51.600;4.994;2023-06-14T00:25:24;16.00;;;13.00;;
30505;SDS011;17292;51.600;4.994;2023-06-14T00:27:50;17.23;;;12.80;;
30505;SDS011;17292;51.600;4.994;2023-06-14T00:30:16;15.63;;;12.95;;
30505;SDS011;17292;51.600;4.994;2023-06-14T00:32:43;18.58;;;13.45;;
30505;SDS011;17292;51.600;4.994;2023-06-14T00:35:09;16.83;;;13.55;;
30505;SDS011;17292;51.600;4.994;2023-06-14T00:37:35;16.25;;;11.90;;
30505;SDS011;17292;51.600;4.994;2023-06-14T00:40:02;13.27;;;11.77;;
30505;SDS011;17292;51.600;4.994;2023-06-14T00:42:29;16.35;;;12.77;;
30505;SDS011;17292;51.600;4.994;2023-06-14T00:44:55;18.08;;;13.02;;
30505;SDS011;17292;51.600;4.994;2023-06-14T00:47:21;13.70;;;12.30;;
30505;SDS011;17292;51.600;4.994;2023-06-14T00:49:48;15.60;;;12.30;;
30505;SDS011;17292;51.600;4.994;2023-06-14T00:52:16;13.48;;;12.10;;
30505;SDS011;17292;51.600;4.994;2023-06-14T00:54:42;14.68;;;12.70;;
30505;SDS011;17292;51.600;4.994;2023-06-14T00:57:09;14.57;;;12.30;;
30505;SDS011;17292;51.600;4.994;2023-06-14T00:59:42;14.90;;;11.85;;
30505;SDS011;17292;51.600;4.994;2023-06-14T01:02:09;14.32;;;12.02;;
30505;SDS011;17292;51.600;4.994;2023-06-14T01:04:36;16.65;;;11.88;;
30505;SDS011;17292;51.600;4.994;2023-06-14T01:07:08;14.60;;;12.68;;
30505;SDS011;17292;51.600;4.994;2023-06-14T01:15:13;16.83;;;12.73;;
30505;SDS011;17292;51.600;4.994;2023-06-14T01:17:40;14.68;;;12.25;;
30505;SDS011;17292;51.600;4.994;2023-06-14T01:20:10;17.35;;;12.68;;
30505;SDS011;17292;51.600;4.994;2023-06-14T01:22:57;14.70;;;12.48;;
30505;SDS011;17292;51.600;4.994;2023-06-14T01:25:24;14.30;;;12.80;;
30505;SDS011;17292;51.600;4.994;2023-06-14T01:27:55;13.40;;;12.00;;
30505;SDS011;17292;51.600;4.994;2023-06-14T01:30:22;17.52;;;12.50;;
30505;SDS011;17292;51.600;4.994;2023-06-14T01:32:52;13.68;;;12.15;;
30505;SDS011;17292;51.600;4.994;2023-06-14T01:35:19;14.57;;;11.85;;
30505;SDS011;17292;51.600;4.994;2023-06-14T01:37:47;14.30;;;12.82;;
30505;SDS011;17292;51.600;4.994;2023-06-14T01:40:13;13.50;;;12.05;;
30505;SDS011;17292;51.600;4.994;2023-06-14T01:42:40;15.52;;;11.85;;
30505;SDS011;17292;51.600;4.994;2023-06-14T01:45:07;16.88;;;12.52;;
30505;SDS011;17292;51.600;4.994;2023-06-14T01:47:34;14.18;;;12.60;;
30505;SDS011;17292;51.600;4.994;2023-06-14T01:50:04;14.45;;;12.48;;
30505;SDS011;17292;51.600;4.994;2023-06-14T01:52:30;13.80;;;12.40;;
30505;SDS011;17292;51.600;4.994;2023-06-14T01:54:56;13.05;;;11.35;;
30505;SDS011;17292;51.600;4.994;2023-06-14T01:57:23;13.88;;;12.02;;
30505;SDS011;17292;51.600;4.994;2023-06-14T01:59:51;15.85;;;12.38;;
30505;SDS011;17292;51.600;4.994;2023-06-14T02:02:18;13.23;;;11.85;;
30505;SDS011;17292;51.600;4.994;2023-06-14T02:04:44;14.27;;;11.85;;
30505;SDS011;17292;51.600;4.994;2023-06-14T02:07:12;13.18;;;11.82;;
30505;SDS011;17292;51.600;4.994;2023-06-14T02:09:40;13.48;;;11.90;;
30505;SDS011;17292;51.600;4.994;2023-06-14T02:12:06;14.70;;;12.65;;
30505;SDS011;17292;51.600;4.994;2023-06-14T02:14:32;13.50;;;12.18;;
30505;SDS011;17292;51.600;4.994;2023-06-14T02:16:58;15.07;;;12.45;;
30505;SDS011;17292;51.600;4.994;2023-06-14T02:19:26;16.45;;;12.90;;
30505;SDS011;17292;51.600;4.994;2023-06-14T02:21:52;13.77;;;12.13;;
30505;SDS011;17292;51.600;4.994;2023-06-14T02:24:18;14.63;;;12.13;;
30505;SDS011;17292;51.600;4.994;2023-06-14T02:26:45;15.95;;;12.18;;
30505;SDS011;17292;51.600;4.994;2023-06-14T02:29:11;15.07;;;12.45;;
30505;SDS011;17292;51.600;4.994;2023-06-14T02:31:39;13.43;;;12.02;;
30505;SDS011;17292;51.600;4.994;2023-06-14T02:34:06;13.68;;;12.13;;
30505;SDS011;17292;51.600;4.994;2023-06-14T02:36:34;14.45;;;12.10;;
30505;SDS011;17292;51.600;4.994;2023-06-14T02:39:00;12.93;;;11.60;;
30505;SDS011;17292;51.600;4.994;2023-06-14T02:41:26;13.95;;;11.98;;
30505;SDS011;17292;51.600;4.994;2023-06-14T02:43:52;14.70;;;12.25;;
30505;SDS011;17292;51.600;4.994;2023-06-14T02:46:19;14.95;;;11.38;;
30505;SDS011;17292;51.600;4.994;2023-06-14T02:48:45;13.60;;;12.20;;
30505;SDS011;17292;51.600;4.994;2023-06-14T02:51:11;13.45;;;12.05;;
30505;SDS011;17292;51.600;4.994;2023-06-14T02:53:37;14.98;;;12.32;;
30505;SDS011;17292;51.600;4.994;2023-06-14T02:56:04;14.10;;;12.70;;
30505;SDS011;17292;51.600;4.994;2023-06-14T02:58:30;13.70;;;12.13;;
30505;SDS011;17292;51.600;4.994;2023-06-14T03:00:58;14.13;;;12.70;;
30505;SDS011;17292;51.600;4.994;2023-06-14T03:03:28;13.95;;;12.55;;
30505;SDS011;17292;51.600;4.994;2023-06-14T03:05:55;13.75;;;12.25;;
30505;SDS011;17292;51.600;4.994;2023-06-14T03:08:21;13.65;;;12.25;;
30505;SDS011;17292;51.600;4.994;2023-06-14T03:10:52;14.20;;;12.75;;
30505;SDS011;17292;51.600;4.994;2023-06-14T03:13:18;13.30;;;11.93;;
30505;SDS011;17292;51.600;4.994;2023-06-14T03:15:48;14.43;;;12.73;;
30505;SDS011;17292;51.600;4.994;2023-06-14T03:18:17;15.82;;;12.27;;
30505;SDS011;17292;51.600;4.994;2023-06-14T03:20:44;13.20;;;11.77;;
30505;SDS011;17292;51.600;4.994;2023-06-14T03:23:10;15.63;;;12.93;;
30505;SDS011;17292;51.600;4.994;2023-06-14T03:25:37;14.10;;;12.70;;
30505;SDS011;17292;51.600;4.994;2023-06-14T03:28:04;13.13;;;11.93;;
30505;SDS011;17292;51.600;4.994;2023-06-14T03:30:30;14.30;;;12.95;;
30505;SDS011;17292;51.600;4.994;2023-06-14T03:32:57;13.27;;;11.88;;
30505;SDS011;17292;51.600;4.994;2023-06-14T03:35:26;14.07;;;12.55;;
30505;SDS011;17292;51.600;4.994;2023-06-14T03:37:52;13.45;;;12.23;;
30505;SDS011;17292;51.600;4.994;2023-06-14T03:40:18;14.10;;;12.75;;
30505;SDS011;17292;51.600;4.994;2023-06-14T03:42:52;13.73;;;12.32;;
30505;SDS011;17292;51.600;4.994;2023-06-14T03:45:18;14.68;;;12.75;;
30505;SDS011;17292;51.600;4.994;2023-06-14T03:47:44;14.43;;;12.20;;
30505;SDS011;17292;51.600;4.994;2023-06-14T03:50:10;14.52;;;13.15;;
30505;SDS011;17292;51.600;4.994;2023-06-14T03:52:37;14.77;;;13.25;;
30505;SDS011;17292;51.600;4.994;2023-06-14T03:55:03;16.05;;;12.57;;
30505;SDS011;17292;51.600;4.994;2023-06-14T03:57:30;13.60;;;12.18;;
30505;SDS011;17292;51.600;4.994;2023-06-14T03:59:56;14.25;;;12.73;;
30505;SDS011;17292;51.600;4.994;2023-06-14T04:02:22;14.27;;;12.82;;
30505;SDS011;17292;51.600;4.994;2023-06-14T04:04:48;13.93;;;12.60;;
30505;SDS011;17292;51.600;4.994;2023-06-14T04:07:19;13.60;;;12.02;;
30505;SDS011;17292;51.600;4.994;2023-06-14T04:09:48;14.27;;;12.88;;
30505;SDS011;17292;51.600;4.994;2023-06-14T04:12:14;13.82;;;12.48;;
30505;SDS011;17292;51.600;4.994;2023-06-14T04:14:41;13.40;;;12.00;;
30505;SDS011;17292;51.600;4.994;2023-06-14T04:17:08;15.50;;;12.57;;
30505;SDS011;17292;51.600;4.994;2023-06-14T04:19:35;13.77;;;12.48;;
30505;SDS011;17292;51.600;4.994;2023-06-14T04:22:01;16.20;;;13.65;;
30505;SDS011;17292;51.600;4.994;2023-06-14T04:24:27;13.73;;;12.40;;
30505;SDS011;17292;51.600;4.994;2023-06-14T04:26:59;16.17;;;12.55;;
30505;SDS011;17292;51.600;4.994;2023-06-14T04:29:30;13.90;;;12.55;;
30505;SDS011;17292;51.600;4.994;2023-06-14T04:31:56;14.43;;;12.60;;
30505;SDS011;17292;51.600;4.994;2023-06-14T04:34:26;13.55;;;12.20;;
30505;SDS011;17292;51.600;4.994;2023-06-14T04:36:59;14.85;;;13.27;;
30505;SDS011;17292;51.600;4.994;2023-06-14T04:39:26;14.80;;;13.30;;
30505;SDS011;17292;51.600;4.994;2023-06-14T04:41:52;13.30;;;12.10;;
30505;SDS011;17292;51.600;4.994;2023-06-14T04:44:22;15.13;;;12.75;;
30505;SDS011;17292;51.600;4.994;2023-06-14T04:46:49;13.50;;;11.85;;
30505;SDS011;17292;51.600;4.994;2023-06-14T04:49:16;13.93;;;12.52;;
30505;SDS011;17292;51.600;4.994;2023-06-14T04:51:43;13.80;;;12.50;;
30505;SDS011;17292;51.600;4.994;2023-06-14T04:54:10;14.35;;;12.85;;
30505;SDS011;17292;51.600;4.994;2023-06-14T04:56:38;15.68;;;12.45;;
30505;SDS011;17292;51.600;4.994;2023-06-14T04:59:04;14.13;;;12.05;;
30505;SDS011;17292;51.600;4.994;2023-06-14T05:01:31;16.17;;;13.13;;
30505;SDS011;17292;51.600;4.994;2023-06-14T05:03:58;12.35;;;11.07;;
30505;SDS011;17292;51.600;4.994;2023-06-14T05:06:24;12.90;;;11.60;;
30505;SDS011;17292;51.600;4.994;2023-06-14T05:08:52;19.63;;;11.32;;
30505;SDS011;17292;51.600;4.994;2023-06-14T05:11:19;12.50;;;10.45;;
30505;SDS011;17292;51.600;4.994;2023-06-14T05:13:45;12.65;;;11.35;;
30505;SDS011;17292;51.600;4.994;2023-06-14T05:16:12;14.68;;;10.48;;
30505;SDS011;17292;51.600;4.994;2023-06-14T05:18:38;18.00;;;10.68;;
30505;SDS011;17292;51.600;4.994;2023-06-14T05:21:05;11.75;;;10.50;;
30505;SDS011;17292;51.600;4.994;2023-06-14T05:23:31;18.20;;;10.73;;
30505;SDS011;17292;51.600;4.994;2023-06-14T05:25:57;16.52;;;11.02;;
30505;SDS011;17292;51.600;4.994;2023-06-14T05:28:24;16.77;;;11.30;;
30505;SDS011;17292;51.600;4.994;2023-06-14T05:30:50;16.08;;;11.23;;
30505;SDS011;17292;51.600;4.994;2023-06-14T05:33:17;15.55;;;11.25;;
30505;SDS011;17292;51.600;4.994;2023-06-14T05:35:43;14.38;;;10.98;;
30505;SDS011;17292;51.600;4.994;2023-06-14T05:38:09;14.80;;;11.27;;
30505;SDS011;17292;51.600;4.994;2023-06-14T05:40:35;15.07;;;11.00;;
30505;SDS011;17292;51.600;4.994;2023-06-14T05:43:01;17.17;;;10.77;;
30505;SDS011;17292;51.600;4.994;2023-06-14T05:45:27;17.58;;;11.48;;
30505;SDS011;17292;51.600;4.994;2023-06-14T05:47:53;18.02;;;11.50;;
30505;SDS011;17292;51.600;4.994;2023-06-14T05:50:20;17.38;;;10.93;;
30505;SDS011;17292;51.600;4.994;2023-06-14T05:52:46;22.13;;;11.85;;
30505;SDS011;17292;51.600;4.994;2023-06-14T05:55:12;17.17;;;11.05;;
30505;SDS011;17292;51.600;4.994;2023-06-14T05:57:38;14.55;;;11.20;;
30505;SDS011;17292;51.600;4.994;2023-06-14T06:00:05;14.05;;;10.63;;
30505;SDS011;17292;51.600;4.994;2023-06-14T06:02:42;13.07;;;10.55;;
30505;SDS011;17292;51.600;4.994;2023-06-14T06:05:11;16.33;;;10.57;;
30505;SDS011;17292;51.600;4.994;2023-06-14T06:07:38;15.73;;;10.95;;
30505;SDS011;17292;51.600;4.994;2023-06-14T06:10:09;15.95;;;10.23;;
30505;SDS011;17292;51.600;4.994;2023-06-14T06:12:36;11.82;;;10.63;;
30505;SDS011;17292;51.600;4.994;2023-06-14T06:15:03;14.07;;;10.73;;
30505;SDS011;17292;51.600;4.994;2023-06-14T06:17:29;13.48;;;11.43;;
30505;SDS011;17292;51.600;4.994;2023-06-14T06:19:55;13.93;;;10.70;;
30505;SDS011;17292;51.600;4.994;2023-06-14T06:22:21;25.60;;;9.15;;
30505;SDS011;17292;51.600;4.994;2023-06-14T06:24:48;15.05;;;8.07;;
30505;SDS011;17292;51.600;4.994;2023-06-14T06:27:14;19.88;;;8.38;;
30505;SDS011;17292;51.600;4.994;2023-06-14T06:29:41;15.05;;;9.30;;
30505;SDS011;17292;51.600;4.994;2023-06-14T06:32:11;13.75;;;9.38;;
30505;SDS011;17292;51.600;4.994;2023-06-14T06:34:37;15.55;;;10.05;;
30505;SDS011;17292;51.600;4.994;2023-06-14T06:37:03;15.38;;;10.35;;
30505;SDS011;17292;51.600;4.994;2023-06-14T06:39:29;19.05;;;10.35;;
30505;SDS011;17292;51.600;4.994;2023-06-14T06:41:55;15.20;;;10.57;;
30505;SDS011;17292;51.600;4.994;2023-06-14T06:44:22;15.00;;;10.70;;
30505;SDS011;17292;51.600;4.994;2023-06-14T06:46:48;16.05;;;9.85;;
30505;SDS011;17292;51.600;4.994;2023-06-14T06:49:14;16.77;;;11.18;;
30505;SDS011;17292;51.600;4.994;2023-06-14T06:51:43;23.35;;;10.68;;
30505;SDS011;17292;51.600;4.994;2023-06-14T06:54:10;13.50;;;10.02;;
30505;SDS011;17292;51.600;4.994;2023-06-14T06:56:36;13.25;;;10.18;;
30505;SDS011;17292;51.600;4.994;2023-06-14T06:59:02;25.90;;;11.20;;
30505;SDS011;17292;51.600;4.994;2023-06-14T07:01:29;21.30;;;11.57;;
30505;SDS011;17292;51.600;4.994;2023-06-14T07:03:55;23.25;;;11.00;;
30505;SDS011;17292;51.600;4.994;2023-06-14T07:06:21;20.73;;;10.20;;
30505;SDS011;17292;51.600;4.994;2023-06-14T07:08:52;24.55;;;10.68;;
30505;SDS011;17292;51.600;4.994;2023-06-14T07:11:18;22.35;;;11.68;;
30505;SDS011;17292;51.600;4.994;2023-06-14T07:13:45;19.73;;;10.93;;
30505;SDS011;17292;51.600;4.994;2023-06-14T07:16:11;17.05;;;10.68;;
30505;SDS011;17292;51.600;4.994;2023-06-14T07:18:37;16.40;;;10.77;;
30505;SDS011;17292;51.600;4.994;2023-06-14T07:21:03;19.70;;;10.98;;
30505;SDS011;17292;51.600;4.994;2023-06-14T07:23:29;15.45;;;10.60;;
30505;SDS011;17292;51.600;4.994;2023-06-14T07:25:55;15.52;;;9.55;;
30505;SDS011;17292;51.600;4.994;2023-06-14T07:28:21;18.92;;;11.40;;
30505;SDS011;17292;51.600;4.994;2023-06-14T07:30:48;20.98;;;10.85;;
30505;SDS011;17292;51.600;4.994;2023-06-14T07:33:14;15.35;;;10.65;;
30505;SDS011;17292;51.600;4.994;2023-06-14T07:35:40;16.27;;;10.23;;
30505;SDS011;17292;51.600;4.994;2023-06-14T07:38:06;18.73;;;11.15;;
30505;SDS011;17292;51.600;4.994;2023-06-14T07:40:32;14.57;;;9.55;;
30505;SDS011;17292;51.600;4.994;2023-06-14T07:42:59;14.02;;;10.38;;
30505;SDS011;17292;51.600;4.994;2023-06-14T07:45:26;17.25;;;10.85;;
30505;SDS011;17292;51.600;4.994;2023-06-14T07:47:52;18.23;;;9.77;;
30505;SDS011;17292;51.600;4.994;2023-06-14T07:50:18;15.88;;;9.85;;
30505;SDS011;17292;51.600;4.994;2023-06-14T07:52:45;20.80;;;10.52;;
30505;SDS011;17292;51.600;4.994;2023-06-14T07:55:13;17.02;;;10.52;;
30505;SDS011;17292;51.600;4.994;2023-06-14T07:57:40;17.33;;;10.18;;
30505;SDS011;17292;51.600;4.994;2023-06-14T08:00:07;13.18;;;10.20;;
30505;SDS011;17292;51.600;4.994;2023-06-14T08:02:36;12.50;;;9.68;;
30505;SDS011;17292;51.600;4.994;2023-06-14T08:05:02;14.50;;;9.40;;
30505;SDS011;17292;51.600;4.994;2023-06-14T08:07:28;20.88;;;9.82;;
30505;SDS011;17292;51.600;4.994;2023-06-14T08:09:55;13.10;;;10.63;;
30505;SDS011;17292;51.600;4.994;2023-06-14T08:12:21;16.52;;;9.90;;
30505;SDS011;17292;51.600;4.994;2023-06-14T08:14:47;11.85;;;9.82;;
30505;SDS011;17292;51.600;4.994;2023-06-14T08:17:13;12.10;;;9.43;;
30505;SDS011;17292;51.600;4.994;2023-06-14T08:19:40;13.65;;;9.55;;
30505;SDS011;17292;51.600;4.994;2023-06-14T08:22:06;20.80;;;10.10;;
30505;SDS011;17292;51.600;4.994;2023-06-14T08:24:33;14.60;;;9.70;;
30505;SDS011;17292;51.600;4.994;2023-06-14T08:26:59;16.55;;;10.23;;
30505;SDS011;17292;51.600;4.994;2023-06-14T08:29:26;11.27;;;10.07;;
30505;SDS011;17292;51.600;4.994;2023-06-14T08:31:54;11.90;;;9.60;;
30505;SDS011;17292;51.600;4.994;2023-06-14T08:34:20;18.05;;;10.10;;
30505;SDS011;17292;51.600;4.994;2023-06-14T08:36:49;15.80;;;9.80;;
30505;SDS011;17292;51.600;4.994;2023-06-14T08:39:15;16.33;;;10.00;;
30505;SDS011;17292;51.600;4.994;2023-06-14T08:41:42;20.63;;;9.63;;
30505;SDS011;17292;51.600;4.994;2023-06-14T08:44:09;24.10;;;10.23;;
30505;SDS011;17292;51.600;4.994;2023-06-14T08:46:35;18.33;;;9.80;;
30505;SDS011;17292;51.600;4.994;2023-06-14T08:49:02;14.27;;;8.77;;
30505;SDS011;17292;51.600;4.994;2023-06-14T08:51:32;17.17;;;9.60;;
30505;SDS011;17292;51.600;4.994;2023-06-14T08:54:01;21.95;;;9.38;;
30505;SDS011;17292;51.600;4.994;2023-06-14T08:56:29;15.93;;;9.27;;
30505;SDS011;17292;51.600;4.994;2023-06-14T08:58:56;18.45;;;9.30;;
30505;SDS011;17292;51.600;4.994;2023-06-14T09:01:25;17.25;;;9.20;;
30505;SDS011;17292;51.600;4.994;2023-06-14T09:03:51;24.35;;;8.55;;
30505;SDS011;17292;51.600;4.994;2023-06-14T09:06:20;14.27;;;8.93;;
30505;SDS011;17292;51.600;4.994;2023-06-14T09:08:48;15.38;;;9.27;;
30505;SDS011;17292;51.600;4.994;2023-06-14T09:11:15;21.80;;;9.68;;
30505;SDS011;17292;51.600;4.994;2023-06-14T09:13:43;19.13;;;9.70;;
30505;SDS011;17292;51.600;4.994;2023-06-14T09:16:10;18.48;;;9.07;;
30505;SDS011;17292;51.600;4.994;2023-06-14T09:18:37;13.18;;;9.02;;
30505;SDS011;17292;51.600;4.994;2023-06-14T09:21:05;19.00;;;9.07;;
30505;SDS011;17292;51.600;4.994;2023-06-14T09:23:39;17.40;;;8.98;;
30505;SDS011;17292;51.600;4.994;2023-06-14T09:26:09;20.42;;;9.40;;
30505;SDS011;17292;51.600;4.994;2023-06-14T09:28:35;15.45;;;9.10;;
30505;SDS011;17292;51.600;4.994;2023-06-14T09:31:01;18.33;;;9.38;;
30505;SDS011;17292;51.600;4.994;2023-06-14T09:33:28;21.58;;;9.35;;
30505;SDS011;17292;51.600;4.994;2023-06-14T09:35:54;15.82;;;9.18;;
30505;SDS011;17292;51.600;4.994;2023-06-14T09:38:20;15.07;;;9.05;;
30505;SDS011;17292;51.600;4.994;2023-06-14T09:40:46;18.88;;;9.90;;
30505;SDS011;17292;51.600;4.994;2023-06-14T09:43:13;17.98;;;9.77;;
30505;SDS011;17292;51.600;4.994;2023-06-14T09:45:39;14.38;;;9.27;;
30505;SDS011;17292;51.600;4.994;2023-06-14T09:48:06;19.80;;;9.20;;
30505;SDS011;17292;51.600;4.994;2023-06-14T09:50:34;17.02;;;9.52;;
30505;SDS011;17292;51.600;4.994;2023-06-14T09:53:02;17.13;;;9.75;;
30505;SDS011;17292;51.600;4.994;2023-06-14T09:55:29;16.17;;;9.18;;
30505;SDS011;17292;51.600;4.994;2023-06-14T09:57:56;17.60;;;9.13;;
30505;SDS011;17292;51.600;4.994;2023-06-14T10:00:23;16.55;;;9.32;;
30505;SDS011;17292;51.600;4.994;2023-06-14T10:02:53;22.67;;;8.98;;
30505;SDS011;17292;51.600;4.994;2023-06-14T10:05:21;17.73;;;9.70;;
30505;SDS011;17292;51.600;4.994;2023-06-14T10:10:14;20.98;;;8.10;;
30505;SDS011;17292;51.600;4.994;2023-06-14T10:12:40;15.20;;;8.88;;
30505;SDS011;17292;51.600;4.994;2023-06-14T10:15:10;15.60;;;9.00;;
30505;SDS011;17292;51.600;4.994;2023-06-14T10:17:43;20.13;;;8.70;;
30505;SDS011;17292;51.600;4.994;2023-06-14T10:22:44;14.63;;;8.32;;
30505;SDS011;17292;51.600;4.994;2023-06-14T10:25:13;21.10;;;8.98;;
30505;SDS011;17292;51.600;4.994;2023-06-14T10:27:52;17.30;;;8.68;;
30505;SDS011;17292;51.600;4.994;2023-06-14T10:30:18;20.70;;;8.73;;
30505;SDS011;17292;51.600;4.994;2023-06-14T10:35:16;20.20;;;8.73;;
30505;SDS011;17292;51.600;4.994;2023-06-14T10:37:45;13.77;;;8.23;;
30505;SDS011;17292;51.600;4.994;2023-06-14T10:40:23;16.85;;;8.25;;
30505;SDS011;17292;51.600;4.994;2023-06-14T10:42:55;13.85;;;7.95;;
30505;SDS011;17292;51.600;4.994;2023-06-14T10:45:21;26.00;;;9.50;;
30505;SDS011;17292;51.600;4.994;2023-06-14T10:47:48;19.85;;;8.75;;
30505;SDS011;17292;51.600;4.994;2023-06-14T10:50:17;17.80;;;8.75;;
30505;SDS011;17292;51.600;4.994;2023-06-14T10:52:44;17.92;;;9.23;;
30505;SDS011;17292;51.600;4.994;2023-06-14T10:57:44;16.35;;;8.05;;
30505;SDS011;17292;51.600;4.994;2023-06-14T11:00:11;27.30;;;8.32;;
30505;SDS011;17292;51.600;4.994;2023-06-14T11:05:25;14.60;;;8.20;;
30505;SDS011;17292;51.600;4.994;2023-06-14T11:10:37;13.18;;;7.93;;
30505;SDS011;17292;51.600;4.994;2023-06-14T11:13:04;12.40;;;7.80;;
30505;SDS011;17292;51.600;4.994;2023-06-14T11:15:31;19.80;;;8.35;;
30505;SDS011;17292;51.600;4.994;2023-06-14T11:17:57;17.73;;;8.20;;
30505;SDS011;17292;51.600;4.994;2023-06-14T11:20:26;16.58;;;7.85;;
30505;SDS011;17292;51.600;4.994;2023-06-14T11:22:53;15.98;;;8.10;;
30505;SDS011;17292;51.600;4.994;2023-06-14T11:25:19;20.45;;;8.02;;
30505;SDS011;17292;51.600;4.994;2023-06-14T11:27:45;20.55;;;7.50;;
30505;SDS011;17292;51.600;4.994;2023-06-14T11:30:12;15.57;;;7.80;;
30505;SDS011;17292;51.600;4.994;2023-06-14T11:32:39;13.85;;;7.72;;
30505;SDS011;17292;51.600;4.994;2023-06-14T11:35:06;16.73;;;7.43;;
30505;SDS011;17292;51.600;4.994;2023-06-14T11:37:33;18.77;;;8.43;;
30505;SDS011;17292;51.600;4.994;2023-06-14T11:39:59;13.38;;;7.80;;
30505;SDS011;17292;51.600;4.994;2023-06-14T11:42:29;12.88;;;7.97;;
30505;SDS011;17292;51.600;4.994;2023-06-14T11:44:55;14.82;;;7.70;;
30505;SDS011;17292;51.600;4.994;2023-06-14T11:47:22;17.40;;;8.02;;
30505;SDS011;17292;51.600;4.994;2023-06-14T11:49:48;14.80;;;7.40;;
30505;SDS011;17292;51.600;4.994;2023-06-14T11:52:14;13.13;;;7.80;;
30505;SDS011;17292;51.600;4.994;2023-06-14T11:54:40;12.93;;;7.53;;
30505;SDS011;17292;51.600;4.994;2023-06-14T11:57:07;15.75;;;8.23;;
30505;SDS011;17292;51.600;4.994;2023-06-14T11:59:39;15.30;;;7.72;;
30505;SDS011;17292;51.600;4.994;2023-06-14T12:02:06;16.55;;;8.05;;
30505;SDS011;17292;51.600;4.994;2023-06-14T12:04:32;18.55;;;7.93;;
30505;SDS011;17292;51.600;4.994;2023-06-14T12:07:11;13.48;;;7.47;;
30505;SDS011;17292;51.600;4.994;2023-06-14T12:12:26;16.88;;;7.88;;
30505;SDS011;17292;51.600;4.994;2023-06-14T12:14:53;13.35;;;7.63;;
30505;SDS011;17292;51.600;4.994;2023-06-14T12:17:19;16.00;;;7.65;;
30505;SDS011;17292;51.600;4.994;2023-06-14T12:19:45;13.02;;;7.53;;
30505;SDS011;17292;51.600;4.994;2023-06-14T12:22:12;21.35;;;8.00;;
30505;SDS011;17292;51.600;4.994;2023-06-14T12:24:42;12.63;;;7.28;;
30505;SDS011;17292;51.600;4.994;2023-06-14T12:27:08;16.73;;;7.80;;
30505;SDS011;17292;51.600;4.994;2023-06-14T12:29:37;17.55;;;7.90;;
30505;SDS011;17292;51.600;4.994;2023-06-14T12:32:03;18.05;;;7.47;;
30505;SDS011;17292;51.600;4.994;2023-06-14T12:34:29;13.02;;;7.43;;
30505;SDS011;17292;51.600;4.994;2023-06-14T12:36:56;14.70;;;7.07;;
30505;SDS011;17292;51.600;4.994;2023-06-14T12:39:22;13.70;;;7.20;;
30505;SDS011;17292;51.600;4.994;2023-06-14T12:41:49;14.48;;;7.70;;
30505;SDS011;17292;51.600;4.994;2023-06-14T12:44:16;10.25;;;6.90;;
30505;SDS011;17292;51.600;4.994;2023-06-14T12:46:42;10.88;;;7.35;;
30505;SDS011;17292;51.600;4.994;2023-06-14T12:49:09;12.48;;;6.80;;
30505;SDS011;17292;51.600;4.994;2023-06-14T12:51:36;16.98;;;7.43;;
30505;SDS011;17292;51.600;4.994;2023-06-14T12:54:02;11.20;;;7.10;;
30505;SDS011;17292;51.600;4.994;2023-06-14T12:56:28;19.90;;;7.22;;
30505;SDS011;17292;51.600;4.994;2023-06-14T12:58:54;13.95;;;7.85;;
30505;SDS011;17292;51.600;4.994;2023-06-14T13:01:20;19.55;;;7.07;;
30505;SDS011;17292;51.600;4.994;2023-06-14T13:03:47;12.45;;;6.35;;
30505;SDS011;17292;51.600;4.994;2023-06-14T13:06:15;16.50;;;6.90;;
30505;SDS011;17292;51.600;4.994;2023-06-14T13:08:41;10.65;;;6.60;;
30505;SDS011;17292;51.600;4.994;2023-06-14T13:11:08;19.80;;;7.22;;
30505;SDS011;17292;51.600;4.994;2023-06-14T13:13:34;19.40;;;6.90;;
30505;SDS011;17292;51.600;4.994;2023-06-14T13:16:00;13.82;;;7.10;;
30505;SDS011;17292;51.600;4.994;2023-06-14T13:18:26;13.80;;;6.88;;
30505;SDS011;17292;51.600;4.994;2023-06-14T13:20:53;11.77;;;6.63;;
30505;SDS011;17292;51.600;4.994;2023-06-14T13:23:19;17.05;;;7.15;;
30505;SDS011;17292;51.600;4.994;2023-06-14T13:25:45;15.25;;;6.53;;
30505;SDS011;17292;51.600;4.994;2023-06-14T13:28:11;16.25;;;7.20;;
30505;SDS011;17292;51.600;4.994;2023-06-14T13:30:37;15.45;;;6.70;;
30505;SDS011;17292;51.600;4.994;2023-06-14T13:33:04;13.05;;;6.90;;
30505;SDS011;17292;51.600;4.994;2023-06-14T13:35:30;14.73;;;6.35;;
30505;SDS011;17292;51.600;4.994;2023-06-14T13:37:56;16.48;;;6.85;;
30505;SDS011;17292;51.600;4.994;2023-06-14T13:40:22;15.48;;;7.05;;
30505;SDS011;17292;51.600;4.994;2023-06-14T13:42:48;10.40;;;6.63;;
30505;SDS011;17292;51.600;4.994;2023-06-14T13:45:15;16.17;;;6.95;;
30505;SDS011;17292;51.600;4.994;2023-06-14T13:47:41;18.38;;;6.72;;
30505;SDS011;17292;51.600;4.994;2023-06-14T13:50:07;14.27;;;6.35;;
30505;SDS011;17292;51.600;4.994;2023-06-14T13:52:33;13.02;;;6.20;;
30505;SDS011;17292;51.600;4.994;2023-06-14T13:55:00;13.73;;;6.47;;
30505;SDS011;17292;51.600;4.994;2023-06-14T13:57:26;9.82;;;5.75;;
30505;SDS011;17292;51.600;4.994;2023-06-14T13:59:52;10.32;;;5.40;;
30505;SDS011;17292;51.600;4.994;2023-06-14T14:02:20;11.45;;;5.68;;
30505;SDS011;17292;51.600;4.994;2023-06-14T14:04:47;8.68;;;5.88;;
30505;SDS011;17292;51.600;4.994;2023-06-14T14:07:18;15.25;;;6.15;;
30505;SDS011;17292;51.600;4.994;2023-06-14T14:09:45;13.18;;;6.15;;
30505;SDS011;17292;51.600;4.994;2023-06-14T14:12:12;12.07;;;5.78;;
30505;SDS011;17292;51.600;4.994;2023-06-14T14:14:39;13.18;;;5.70;;
30505;SDS011;17292;51.600;4.994;2023-06-14T14:17:06;9.35;;;5.43;;
30505;SDS011;17292;51.600;4.994;2023-06-14T14:19:32;11.80;;;5.47;;
30505;SDS011;17292;51.600;4.994;2023-06-14T14:21:58;15.10;;;5.88;;
30505;SDS011;17292;51.600;4.994;2023-06-14T14:24:26;15.95;;;6.15;;
30505;SDS011;17292;51.600;4.994;2023-06-14T14:26:52;7.50;;;4.88;;
30505;SDS011;17292;51.600;4.994;2023-06-14T14:29:19;5.22;;;4.72;;
30505;SDS011;17292;51.600;4.994;2023-06-14T14:31:45;13.18;;;6.03;;
30505;SDS011;17292;51.600;4.994;2023-06-14T14:34:11;10.18;;;5.20;;
30505;SDS011;17292;51.600;4.994;2023-06-14T14:36:38;9.55;;;5.07;;
30505;SDS011;17292;51.600;4.994;2023-06-14T14:39:07;8.77;;;5.13;;
30505;SDS011;17292;51.600;4.994;2023-06-14T14:41:34;13.70;;;5.55;;
30505;SDS011;17292;51.600;4.994;2023-06-14T14:44:00;10.48;;;5.15;;
30505;SDS011;17292;51.600;4.994;2023-06-14T14:46:27;9.25;;;5.13;;
30505;SDS011;17292;51.600;4.994;2023-06-14T14:48:53;9.75;;;5.53;;
30505;SDS011;17292;51.600;4.994;2023-06-14T14:51:20;5.78;;;4.90;;